createdAt,value
2018-12-07T00:01:25.923Z,100143.11
2018-12-07T00:03:54.403Z,100142.72
2018-12-07T00:06:22.279Z,100146.62
2018-12-07T00:08:49.931Z,100148.31
2018-12-07T00:11:17.390Z,100139.83
2018-12-07T00:13:44.892Z,100137.27
2018-12-07T00:16:12.660Z,100136.80
2018-12-07T00:18:40.152Z,100137.27
2018-12-07T00:21:07.699Z,100127.50
2018-12-07T00:23:35.234Z,100124.85
2018-12-07T00:26:02.877Z,100125.33
2018-12-07T00:28:30.363Z,100129.14
2018-12-07T00:30:57.877Z,100121.93
2018-12-07T00:33:25.347Z,100122.27
2018-12-07T00:35:52.820Z,100121.45
2018-12-07T00:38:20.284Z,100109.16
2018-12-07T00:40:48.533Z,100110.30
2018-12-07T00:43:15.989Z,100107.82
2018-12-07T00:45:43.771Z,100102.70
2018-12-07T00:48:11.218Z,100096.11
2018-12-07T00:50:38.680Z,100089.68
2018-12-07T00:53:06.175Z,100091.13
2018-12-07T00:55:39.214Z,100097.56
2018-12-07T00:58:06.793Z,100089.13
2018-12-07T01:00:34.337Z,100086.98
2018-12-07T01:03:01.915Z,100085.48
2018-12-07T01:05:29.438Z,100082.92
2018-12-07T01:07:56.989Z,100082.06
2018-12-07T01:10:24.466Z,100081.73
2018-12-07T01:12:51.976Z,100084.73
2018-12-07T01:15:19.985Z,100080.56
2018-12-07T01:17:47.467Z,100085.20
2018-12-07T01:20:15.494Z,100091.63
2018-12-07T01:22:43.018Z,100088.98
2018-12-07T01:25:10.561Z,100080.11
2018-12-07T01:27:38.025Z,100073.72
2018-12-07T01:30:05.687Z,100071.97
2018-12-07T01:32:33.127Z,100078.81
2018-12-07T01:35:03.928Z,100075.80
2018-12-07T01:37:32.002Z,100071.13
2018-12-07T01:39:59.453Z,100063.48
2018-12-07T01:42:27.361Z,100058.45
2018-12-07T01:44:54.806Z,100055.03
2018-12-07T01:47:22.283Z,100048.60
2018-12-07T01:49:49.755Z,100048.22
2018-12-07T01:52:17.591Z,100045.66
2018-12-07T01:54:45.156Z,100039.65
2018-12-07T01:57:12.954Z,100043.84
2018-12-07T01:59:40.375Z,100038.28
2018-12-07T02:02:07.857Z,100037.06
2018-12-07T02:04:35.321Z,100038.70
2018-12-07T02:07:02.773Z,100030.13
2018-12-07T02:09:30.300Z,100027.98
2018-12-07T02:11:57.727Z,100017.78
2018-12-07T02:14:25.240Z,100009.24
2018-12-07T02:16:52.775Z,100003.68
2018-12-07T02:19:20.668Z,100004.16
2018-12-07T02:21:48.143Z,100001.17
2018-12-07T02:24:15.630Z,100005.41
2018-12-07T02:26:43.054Z,99995.91
2018-12-07T02:29:10.601Z,99992.87
2018-12-07T02:31:38.036Z,99988.23
2018-12-07T02:34:06.048Z,99985.20
2018-12-07T02:36:33.496Z,99980.05
2018-12-07T02:39:00.965Z,99980.88
2018-12-07T02:41:28.382Z,99977.87
2018-12-07T02:43:55.839Z,99975.41
2018-12-07T02:46:23.319Z,99978.33
2018-12-07T02:48:50.771Z,99968.50
2018-12-07T02:51:18.202Z,99965.08
2018-12-07T02:53:45.735Z,99963.38
2018-12-07T02:56:13.228Z,99955.73
2018-12-07T02:58:41.217Z,99957.84
2018-12-07T03:01:08.660Z,99953.15
2018-12-07T03:03:36.126Z,99948.44
2018-12-07T03:06:03.796Z,99948.83
2018-12-07T03:08:31.281Z,99949.69
2018-12-07T03:10:58.759Z,99952.22
2018-12-07T03:13:26.212Z,99943.30
2018-12-07T03:15:53.673Z,99944.58
2018-12-07T03:18:29.800Z,99941.15
2018-12-07T03:20:57.736Z,99940.23
2018-12-07T03:23:25.170Z,99938.98
2018-12-07T03:25:53.114Z,99933.47
2018-12-07T03:28:20.607Z,99934.75
2018-12-07T03:30:48.107Z,99936.03
2018-12-07T03:33:15.658Z,99937.34
2018-12-07T03:35:43.524Z,99937.80
2018-12-07T03:38:10.979Z,99933.95
2018-12-07T03:40:38.569Z,99927.49
2018-12-07T03:43:06.147Z,99926.63
2018-12-07T03:45:33.619Z,99922.34
2018-12-07T03:48:01.158Z,99926.18
2018-12-07T03:50:28.600Z,99925.37
2018-12-07T03:52:56.069Z,99921.06
2018-12-07T03:55:23.546Z,99918.53
2018-12-07T03:57:51.016Z,99915.62
2018-12-07T04:00:18.950Z,99914.28
2018-12-07T04:02:46.404Z,99910.02
2018-12-07T04:05:13.879Z,99910.37
2018-12-07T04:07:41.473Z,99909.06
2018-12-07T04:10:08.993Z,99912.04
2018-12-07T04:12:36.440Z,99903.56
2018-12-07T04:15:04.826Z,99913.70
2018-12-07T04:17:32.294Z,99909.89
2018-12-07T04:20:00.562Z,99905.58
2018-12-07T04:22:28.040Z,99907.78
2018-12-07T04:24:55.617Z,99899.72
2018-12-07T04:27:23.125Z,99906.86
2018-12-07T04:29:50.697Z,99907.30
2018-12-07T04:32:18.474Z,99905.09
2018-12-07T04:34:46.603Z,99905.99
2018-12-07T04:37:14.060Z,99905.03
2018-12-07T04:39:41.519Z,99897.38
2018-12-07T04:42:08.956Z,99898.19
2018-12-07T04:44:36.422Z,99896.94
2018-12-07T04:47:03.885Z,99892.65
2018-12-07T04:49:31.768Z,99898.19
2018-12-07T04:51:59.335Z,99899.78
2018-12-07T04:54:26.797Z,99897.25
2018-12-07T04:56:54.239Z,99890.38
2018-12-07T04:59:21.714Z,99887.78
2018-12-07T05:01:49.170Z,99889.89
2018-12-07T05:04:17.208Z,99876.99
2018-12-07T05:06:44.673Z,99886.02
2018-12-07T05:09:12.134Z,99883.36
2018-12-07T05:11:39.575Z,99880.73
2018-12-07T05:14:07.095Z,99880.32
2018-12-07T05:16:34.538Z,99876.89
2018-12-07T05:19:01.996Z,99878.48
2018-12-07T05:21:29.421Z,99878.77
2018-12-07T05:23:56.873Z,99872.37
2018-12-07T05:26:24.353Z,99872.09
2018-12-07T05:28:51.852Z,99873.75
2018-12-07T05:31:19.282Z,99872.37
2018-12-07T05:33:46.774Z,99869.74
2018-12-07T05:36:14.302Z,99868.02
2018-12-07T05:38:41.739Z,99863.16
2018-12-07T05:41:09.301Z,99866.28
2018-12-07T05:43:40.678Z,99858.88
2018-12-07T05:46:08.157Z,99857.08
2018-12-07T05:48:35.631Z,99859.19
2018-12-07T05:51:03.143Z,99857.21
2018-12-07T05:53:30.589Z,99860.43
2018-12-07T05:55:58.066Z,99856.17
2018-12-07T05:58:26.016Z,99855.31
2018-12-07T06:00:53.498Z,99857.80
2018-12-07T06:03:21.041Z,99852.16
2018-12-07T06:05:48.557Z,99854.23
2018-12-07T06:08:16.646Z,99855.72
2018-12-07T06:10:44.142Z,99854.23
2018-12-07T06:13:11.595Z,99852.50
2018-12-07T06:15:39.059Z,99853.27
2018-12-07T06:18:06.516Z,99850.59
2018-12-07T06:20:33.968Z,99845.88
2018-12-07T06:23:01.459Z,99842.83
2018-12-07T06:25:28.935Z,99842.83
2018-12-07T06:27:56.435Z,99840.34
2018-12-07T06:30:24.561Z,99833.11
2018-12-07T06:32:52.009Z,99834.24
2018-12-07T06:35:19.521Z,99832.17
2018-12-07T06:37:46.978Z,99830.85
2018-12-07T06:40:14.536Z,99823.20
2018-12-07T06:42:41.983Z,99827.46
2018-12-07T06:45:09.500Z,99824.83
2018-12-07T06:47:37.021Z,99821.44
2018-12-07T06:50:07.228Z,99822.38
2018-12-07T06:52:34.804Z,99814.87
2018-12-07T06:55:02.250Z,99815.36
2018-12-07T06:57:29.730Z,99816.25
2018-12-07T06:59:58.108Z,99813.28
2018-12-07T07:02:25.713Z,99810.37
2018-12-07T07:04:53.676Z,99812.94
2018-12-07T07:07:21.199Z,99811.28
2018-12-07T07:09:48.656Z,99811.69
2018-12-07T07:12:16.122Z,99806.53
2018-12-07T07:14:43.581Z,99801.86
2018-12-07T07:17:11.039Z,99799.27
2018-12-07T07:19:38.508Z,99799.16
2018-12-07T07:22:05.972Z,99794.86
2018-12-07T07:24:33.478Z,99791.62
2018-12-07T07:27:01.019Z,99789.48
2018-12-07T07:29:28.697Z,99787.82
2018-12-07T07:31:56.209Z,99790.80
2018-12-07T07:34:23.681Z,99783.45
2018-12-07T07:36:51.325Z,99789.86
2018-12-07T07:39:18.817Z,99784.28
2018-12-07T07:41:46.277Z,99782.52
2018-12-07T07:44:13.731Z,99777.61
2018-12-07T07:46:41.196Z,99772.41
2018-12-07T07:49:08.660Z,99768.57
2018-12-07T07:51:36.104Z,99764.80
2018-12-07T07:54:03.580Z,99766.91
2018-12-07T07:56:31.075Z,99762.16
2018-12-07T07:58:58.533Z,99763.02
2018-12-07T08:01:26.656Z,99758.81
2018-12-07T08:03:54.185Z,99757.00
2018-12-07T08:06:21.671Z,99753.91
2018-12-07T08:08:49.164Z,99750.40
2018-12-07T08:11:17.188Z,99745.84
2018-12-07T08:13:44.668Z,99733.94
2018-12-07T08:16:12.141Z,99733.10
2018-12-07T08:18:39.632Z,99725.87
2018-12-07T08:21:07.141Z,99728.70
2018-12-07T08:23:34.633Z,99718.94
2018-12-07T08:26:02.098Z,99716.00
2018-12-07T08:28:29.611Z,99724.06
2018-12-07T08:30:57.103Z,99715.09
2018-12-07T08:33:24.568Z,99711.36
2018-12-07T08:35:52.106Z,99715.25
2018-12-07T08:38:19.568Z,99714.87
2018-12-07T08:40:47.016Z,99709.41
2018-12-07T08:43:15.773Z,99703.42
2018-12-07T08:45:43.262Z,99702.55
2018-12-07T08:48:10.690Z,99695.40
2018-12-07T08:50:38.152Z,99685.27
2018-12-07T08:53:05.602Z,99684.81
2018-12-07T08:55:33.102Z,99685.64
2018-12-07T08:58:00.581Z,99680.48
2018-12-07T09:00:28.215Z,99671.55
2018-12-07T09:02:55.657Z,99666.92
2018-12-07T09:05:23.119Z,99667.48
2018-12-07T09:07:50.666Z,99674.72
2018-12-07T09:10:18.122Z,99669.48
2018-12-07T09:12:45.598Z,99666.63
2018-12-07T09:15:13.134Z,99666.09
2018-12-07T09:17:40.574Z,99659.69
2018-12-07T09:20:08.115Z,99658.36
2018-12-07T09:22:35.653Z,99654.52
2018-12-07T09:25:03.527Z,99642.09
2018-12-07T09:27:31.013Z,99643.78
2018-12-07T09:29:58.482Z,99635.19
2018-12-07T09:32:26.283Z,99625.05
2018-12-07T09:34:53.803Z,99617.41
2018-12-07T09:37:21.279Z,99625.77
2018-12-07T09:39:48.868Z,99618.53
2018-12-07T09:42:16.331Z,99618.16
2018-12-07T09:44:43.822Z,99609.97
2018-12-07T09:47:11.331Z,99611.63
2018-12-07T09:49:38.818Z,99606.92
2018-12-07T09:52:06.303Z,99600.84
2018-12-07T09:54:33.799Z,99596.05
2018-12-07T09:57:01.242Z,99589.69
2018-12-07T09:59:28.735Z,99588.81
2018-12-07T10:01:56.204Z,99584.52
2018-12-07T10:04:23.671Z,99582.70
2018-12-07T10:06:51.146Z,99575.17
2018-12-07T10:09:18.601Z,99578.57
2018-12-07T10:11:46.069Z,99560.13
2018-12-07T10:14:13.577Z,99553.73
2018-12-07T10:16:41.040Z,99548.52
2018-12-07T10:19:08.549Z,99547.66
2018-12-07T10:21:36.093Z,99537.52
2018-12-07T10:24:03.677Z,99545.96
2018-12-07T10:26:31.133Z,99536.49
2018-12-07T10:28:58.598Z,99537.27
2018-12-07T10:31:26.139Z,99533.15
2018-12-07T10:33:53.633Z,99530.17
2018-12-07T10:36:21.073Z,99521.52
2018-12-07T10:38:48.553Z,99514.21
2018-12-07T10:41:16.022Z,99505.60
2018-12-07T10:43:43.501Z,99507.71
2018-12-07T10:46:10.960Z,99506.80
2018-12-07T10:48:38.461Z,99509.27
2018-12-07T10:51:08.219Z,99501.50
2018-12-07T10:53:35.540Z,99496.23
2018-12-07T10:56:03.037Z,99485.08
2018-12-07T10:58:30.525Z,99476.55
2018-12-07T11:01:03.492Z,99471.88
2018-12-07T11:03:37.017Z,99466.77
2018-12-07T11:06:10.330Z,99459.34
2018-12-07T11:08:43.456Z,99454.59
2018-12-07T11:14:17.429Z,99442.15
2018-12-07T11:16:50.381Z,99441.00
2018-12-07T11:19:23.409Z,99424.79
2018-12-07T11:21:56.391Z,99421.59
2018-12-07T11:24:29.551Z,99418.70
2018-12-07T11:27:02.710Z,99413.39
2018-12-07T11:29:35.798Z,99403.19
2018-12-07T11:32:08.950Z,99404.09
2018-12-07T11:34:37.624Z,99398.02
2018-12-07T11:37:05.080Z,99395.40
2018-12-07T11:39:32.533Z,99391.40
2018-12-07T11:41:59.992Z,99384.67
2018-12-07T11:44:27.439Z,99389.17
2018-12-07T11:46:54.970Z,99372.00
2018-12-07T11:49:24.396Z,99357.69
2018-12-07T11:51:51.856Z,99354.41
2018-12-07T11:54:19.323Z,99350.56
2018-12-07T11:56:46.791Z,99342.23
2018-12-07T11:59:14.280Z,99339.21
2018-12-07T12:01:44.912Z,99330.30
2018-12-07T12:04:11.242Z,99323.06
2018-12-07T12:06:38.673Z,99318.84
2018-12-07T12:09:07.889Z,99313.27
2018-12-07T12:11:35.693Z,99307.77
2018-12-07T12:14:03.237Z,99298.80
2018-12-07T12:16:31.693Z,99287.83
2018-12-07T12:18:59.162Z,99287.83
2018-12-07T12:21:26.651Z,99293.41
2018-12-07T12:23:54.153Z,99287.42
2018-12-07T12:26:21.632Z,99273.41
2018-12-07T12:28:49.114Z,99271.73
2018-12-07T12:31:16.773Z,99257.05
2018-12-07T12:33:44.287Z,99250.33
2018-12-07T12:36:17.007Z,99246.03
2018-12-07T12:38:41.367Z,99230.71
2018-12-07T12:41:08.873Z,99217.34
2018-12-07T12:43:36.351Z,99227.02
2018-12-07T12:46:03.938Z,99230.05
2018-12-07T12:48:31.438Z,99219.66
2018-12-07T12:50:58.928Z,99209.27
2018-12-07T12:53:26.562Z,99207.11
2018-12-07T12:55:54.346Z,99198.08
2018-12-07T12:58:21.992Z,99191.99
2018-12-07T13:00:50.100Z,99186.87
2018-12-07T13:03:18.690Z,99179.30
2018-12-07T13:05:46.228Z,99172.89
2018-12-07T13:08:13.793Z,99178.33
2018-12-07T13:10:41.281Z,99176.62
2018-12-07T13:13:09.094Z,99180.46
2018-12-07T13:15:36.631Z,99173.34
2018-12-07T13:18:06.222Z,99162.44
2018-12-07T13:20:33.725Z,99162.63
2018-12-07T13:23:03.774Z,99152.48
2018-12-07T13:25:36.840Z,99151.20
2018-12-07T13:28:05.461Z,99146.63
2018-12-07T13:30:34.574Z,99145.05
2018-12-07T13:33:02.364Z,99146.31
2018-12-07T13:35:30.085Z,99140.30
2018-12-07T13:37:57.770Z,99127.91
2018-12-07T13:40:25.665Z,99121.90
2018-12-07T13:42:53.163Z,99113.70
2018-12-07T13:45:21.090Z,99108.74
2018-12-07T13:47:48.962Z,99096.00
2018-12-07T13:50:22.993Z,99089.25
2018-12-07T13:52:50.650Z,99082.99
2018-12-07T13:55:18.531Z,99084.83
2018-12-07T13:57:46.380Z,99088.06
2018-12-07T14:00:14.546Z,99083.18
2018-12-07T14:02:42.404Z,99089.86
2018-12-07T14:05:10.375Z,99076.13
2018-12-07T14:07:38.482Z,99079.20
2018-12-07T14:10:06.538Z,99056.71
2018-12-07T14:12:34.190Z,99056.98
2018-12-07T14:15:01.790Z,99047.22
2018-12-07T14:17:29.473Z,99041.45
2018-12-07T14:19:58.367Z,99032.27
2018-12-07T14:22:26.181Z,99029.09
2018-12-07T14:24:53.920Z,99026.02
2018-12-07T14:27:21.713Z,99025.31
2018-12-07T14:29:49.569Z,99033.97
2018-12-07T14:32:17.426Z,99018.48
2018-12-07T14:34:45.017Z,99019.76
2018-12-07T14:37:12.673Z,99021.73
2018-12-07T14:39:40.255Z,99014.62
2018-12-07T14:42:07.741Z,99012.59
2018-12-07T14:44:35.548Z,98999.89
2018-12-07T14:47:03.070Z,98997.20
2018-12-07T14:49:30.778Z,99000.59
2018-12-07T14:51:58.419Z,98995.19
2018-12-07T14:54:26.021Z,98999.52
2018-12-07T14:56:53.930Z,98986.83
2018-12-07T14:59:22.710Z,98987.84
2018-12-07T15:01:50.750Z,98982.86
2018-12-07T15:04:18.579Z,98966.73
2018-12-07T15:06:46.325Z,98958.28
2018-12-07T15:09:14.170Z,98946.13
2018-12-07T15:11:41.792Z,98943.42
2018-12-07T15:14:09.437Z,98929.23
2018-12-07T15:16:37.670Z,98933.53
2018-12-07T15:19:05.303Z,98922.77
2018-12-07T15:21:33.171Z,98911.00
2018-12-07T15:24:00.996Z,98921.24
2018-12-07T15:26:28.639Z,98910.11
2018-12-07T15:28:56.245Z,98906.27
2018-12-07T15:31:23.855Z,98904.77
2018-12-07T15:33:51.428Z,98894.44
2018-12-07T15:36:18.924Z,98899.09
2018-12-07T15:38:46.418Z,98900.66
2018-12-07T15:41:14.044Z,98900.50
2018-12-07T15:43:41.622Z,98898.86
2018-12-07T15:46:09.258Z,98898.46
2018-12-07T15:48:36.719Z,98899.74
2018-12-07T15:51:04.729Z,98888.91
2018-12-07T15:53:32.268Z,98892.23
2018-12-07T15:56:00.341Z,98878.91
2018-12-07T15:58:28.359Z,98870.00
2018-12-07T16:00:56.352Z,98871.16
2018-12-07T16:03:24.099Z,98868.49
2018-12-07T16:05:51.746Z,98850.89
2018-12-07T16:08:24.871Z,98842.80
2018-12-07T16:10:49.338Z,98833.23
2018-12-07T16:13:17.503Z,98837.68
2018-12-07T16:15:45.319Z,98829.17
2018-12-07T16:18:13.074Z,98828.71
2018-12-07T16:20:40.799Z,98831.44
2018-12-07T16:23:08.477Z,98828.58
2018-12-07T16:25:36.047Z,98819.15
2018-12-07T16:28:03.626Z,98813.20
2018-12-07T16:30:31.305Z,98810.55
2018-12-07T16:32:58.918Z,98811.76
2018-12-07T16:35:26.490Z,98810.41
2018-12-07T16:37:54.078Z,98797.27
2018-12-07T16:40:21.840Z,98786.95
2018-12-07T16:42:49.528Z,98792.08
2018-12-07T16:45:17.141Z,98794.80
2018-12-07T16:47:44.911Z,98802.85
2018-12-07T16:50:12.783Z,98798.13
2018-12-07T16:52:40.636Z,98788.63
2018-12-07T16:55:08.252Z,98798.13
2018-12-07T16:57:36.691Z,98789.28
2018-12-07T17:00:06.640Z,98784.39
2018-12-07T17:02:34.272Z,98786.06
2018-12-07T17:05:01.948Z,98791.55
2018-12-07T17:07:29.977Z,98786.06
2018-12-07T17:09:57.498Z,98787.70
2018-12-07T17:12:24.981Z,98783.40
2018-12-07T17:14:52.944Z,98773.55
2018-12-07T17:17:20.764Z,98763.00
2018-12-07T17:19:48.284Z,98760.43
2018-12-07T17:22:15.894Z,98762.37
2018-12-07T17:24:43.640Z,98755.20
2018-12-07T17:27:11.415Z,98756.66
2018-12-07T17:29:39.302Z,98746.92
2018-12-07T17:32:07.210Z,98740.81
2018-12-07T17:34:35.006Z,98740.12
2018-12-07T17:37:02.815Z,98727.02
2018-12-07T17:39:30.683Z,98716.84
2018-12-07T17:41:58.704Z,98709.33
2018-12-07T17:44:26.460Z,98710.91
2018-12-07T17:46:54.209Z,98698.26
2018-12-07T17:49:21.769Z,98691.92
2018-12-07T17:51:49.301Z,98694.19
2018-12-07T17:54:17.616Z,98691.69
2018-12-07T17:56:45.516Z,98698.91
2018-12-07T17:59:13.352Z,98689.66
2018-12-07T18:01:40.984Z,98685.05
2018-12-07T18:04:08.451Z,98680.09
2018-12-07T18:06:36.454Z,98677.08
2018-12-07T18:09:06.647Z,98677.53
2018-12-07T18:11:34.194Z,98678.29
2018-12-07T18:14:01.841Z,98671.89
2018-12-07T18:16:29.669Z,98666.77
2018-12-07T18:18:57.728Z,98659.68
2018-12-07T18:21:25.295Z,98644.78
2018-12-07T18:23:52.888Z,98652.98
2018-12-07T18:26:20.465Z,98637.78
2018-12-07T18:28:48.407Z,98637.91
2018-12-07T18:31:16.440Z,98631.45
2018-12-07T18:33:44.975Z,98624.13
2018-12-07T18:36:12.958Z,98631.38
2018-12-07T18:38:40.570Z,98619.69
2018-12-07T18:41:08.037Z,98622.32
2018-12-07T18:43:36.077Z,98632.43
2018-12-07T18:46:04.178Z,98618.41
2018-12-07T18:48:32.090Z,98615.03
2018-12-07T18:50:59.708Z,98605.77
2018-12-07T18:53:27.553Z,98595.20
2018-12-07T18:55:55.268Z,98588.67
2018-12-07T18:58:22.937Z,98585.20
2018-12-07T19:00:51.540Z,98593.05
2018-12-07T19:03:19.184Z,98580.24
2018-12-07T19:05:49.155Z,98576.18
2018-12-07T19:08:17.049Z,98577.06
2018-12-07T19:10:45.066Z,98568.50
2018-12-07T19:13:12.711Z,98566.08
2018-12-07T19:15:40.273Z,98556.75
2018-12-07T19:18:07.737Z,98560.95
2018-12-07T19:20:35.278Z,98554.33
2018-12-07T19:23:02.894Z,98564.04
2018-12-07T19:25:30.741Z,98568.27
2018-12-07T19:27:58.458Z,98571.72
2018-12-07T19:30:26.152Z,98558.86
2018-12-07T19:32:53.786Z,98561.71
2018-12-07T19:35:21.345Z,98558.33
2018-12-07T19:37:49.301Z,98554.49
2018-12-07T19:40:17.134Z,98551.57
2018-12-07T19:42:44.641Z,98545.37
2018-12-07T19:45:12.717Z,98533.79
2018-12-07T19:47:40.436Z,98535.07
2018-12-07T19:50:08.224Z,98531.23
2018-12-07T19:52:35.955Z,98533.86
2018-12-07T19:55:04.465Z,98526.57
2018-12-07T19:57:32.336Z,98529.06
2018-12-07T19:59:59.840Z,98515.13
2018-12-07T20:02:27.512Z,98517.45
2018-12-07T20:04:55.304Z,98505.58
2018-12-07T20:07:23.184Z,98517.16
2018-12-07T20:09:51.151Z,98506.17
2018-12-07T20:12:19.001Z,98516.70
2018-12-07T20:14:47.001Z,98509.13
2018-12-07T20:17:15.168Z,98511.97
2018-12-07T20:19:42.704Z,98512.86
2018-12-07T20:22:11.131Z,98512.50
2018-12-07T20:24:40.826Z,98508.95
2018-12-07T20:27:08.694Z,98514.02
2018-12-07T20:29:36.664Z,98513.79
2018-12-07T20:32:04.462Z,98521.00
2018-12-07T20:34:32.188Z,98529.80
2018-12-07T20:36:59.934Z,98533.80
2018-12-07T20:39:28.513Z,98542.45
2018-12-07T20:41:56.181Z,98525.07
2018-12-07T20:44:24.147Z,98523.92
2018-12-07T20:46:52.002Z,98537.94
2018-12-07T20:49:20.003Z,98532.88
2018-12-07T20:51:47.699Z,98538.62
2018-12-07T20:54:15.392Z,98541.23
2018-12-07T20:56:42.974Z,98526.23
2018-12-07T20:59:10.560Z,98535.99
2018-12-07T21:01:38.301Z,98619.06
2018-12-07T21:04:22.861Z,98687.69
2018-12-07T21:13:47.596Z,98679.62
2018-12-07T21:19:50.765Z,98671.83
2018-12-07T21:22:19.247Z,98686.81
2018-12-07T21:24:47.854Z,98676.96
2018-12-07T21:27:15.624Z,98687.88
2018-12-07T21:29:43.735Z,98688.13
2018-12-07T21:32:13.936Z,98687.63
2018-12-07T21:37:42.126Z,98712.56
2018-12-07T21:40:12.881Z,98728.32
2018-12-07T21:42:40.653Z,98733.30
2018-12-07T21:45:08.479Z,98729.97
2018-12-07T21:50:52.459Z,98760.30
2018-12-07T21:53:20.617Z,98778.45
2018-12-07T21:55:48.429Z,98780.95
2018-12-07T21:58:16.317Z,98777.18
2018-12-07T22:00:44.515Z,98785.19
2018-12-07T22:03:12.436Z,98778.61
2018-12-07T22:05:40.542Z,98787.96
2018-12-07T22:08:08.436Z,98795.30
2018-12-07T22:10:37.300Z,98800.39
2018-12-07T22:13:05.139Z,98817.23
2018-12-07T22:15:34.846Z,98828.28
2018-12-07T22:18:02.514Z,98829.03
2018-12-07T22:20:31.785Z,98834.61
2018-12-07T22:23:00.400Z,98852.80
2018-12-07T22:25:29.254Z,98860.02
2018-12-07T22:27:57.790Z,98863.91
2018-12-07T22:30:25.586Z,98876.20
2018-12-07T22:32:53.272Z,98887.16
2018-12-07T22:35:21.081Z,98891.88
2018-12-07T22:37:50.057Z,98895.29
2018-12-07T22:40:24.835Z,98901.66
2018-12-07T22:42:52.613Z,98902.55
2018-12-07T22:45:20.775Z,98906.67
2018-12-07T22:47:48.512Z,98915.66
2018-12-07T22:50:16.277Z,98924.97
2018-12-07T22:52:43.772Z,98931.67
2018-12-07T22:55:11.897Z,98934.67
2018-12-07T22:57:39.354Z,98937.22
2018-12-07T23:00:09.832Z,98938.97
2018-12-07T23:02:37.860Z,98944.86
2018-12-07T23:05:05.446Z,98936.42
2018-12-07T23:07:32.877Z,98945.06
2018-12-07T23:10:00.435Z,98948.64
2018-12-07T23:12:27.895Z,98945.20
2018-12-07T23:14:55.345Z,98933.75
2018-12-07T23:17:22.828Z,98941.48
2018-12-07T23:19:50.700Z,98952.94
2018-12-07T23:22:18.185Z,98955.48
2018-12-07T23:24:46.323Z,98964.87
2018-12-07T23:27:13.762Z,98941.66
2018-12-07T23:29:41.222Z,98970.03
2018-12-07T23:32:08.678Z,98988.48
2018-12-07T23:34:36.168Z,98977.28
2018-12-07T23:37:03.750Z,98984.98
2018-12-07T23:39:31.388Z,98995.77
2018-12-07T23:41:58.861Z,98995.52
2018-12-07T23:44:27.306Z,98990.84
2018-12-07T23:46:54.864Z,98999.40
2018-12-07T23:49:22.888Z,99005.31
2018-12-07T23:51:52.927Z,98997.43
2018-12-07T23:54:20.891Z,99006.66
2018-12-07T23:56:48.803Z,99009.55
2018-12-07T23:59:16.529Z,99019.88
